createdAt,value
2018-06-21T01:17:09.017Z,8.55
2018-06-21T01:19:37.323Z,8.87
2018-06-21T01:22:05.809Z,8.57
2018-06-21T01:24:34.172Z,8.83
2018-06-21T01:27:02.661Z,8.58
2018-06-21T01:29:31.025Z,8.00
2018-06-21T01:31:59.461Z,8.48
2018-06-21T01:34:27.886Z,7.92
2018-06-21T01:36:56.580Z,7.90
2018-06-21T01:39:24.874Z,7.93
2018-06-21T01:41:53.226Z,7.97
2018-06-21T01:44:21.645Z,7.70
2018-06-21T01:46:50.310Z,7.87
2018-06-21T01:49:18.620Z,7.80
2018-06-21T01:51:47.544Z,7.55
2018-06-21T01:54:15.864Z,7.30
2018-06-21T01:56:44.261Z,7.30
2018-06-21T01:59:12.612Z,7.90
2018-06-21T02:01:41.142Z,7.45
2018-06-21T02:04:09.539Z,7.30
2018-06-21T02:06:37.930Z,7.12
2018-06-21T02:09:08.174Z,7.67
2018-06-21T02:11:36.542Z,7.45
2018-06-21T02:14:05.183Z,7.83
2018-06-21T02:16:33.891Z,8.30
2018-06-21T02:19:02.279Z,7.70
2018-06-21T02:21:30.640Z,8.00
2018-06-21T02:23:59.000Z,8.18
2018-06-21T02:26:27.336Z,8.45
2018-06-21T02:28:55.651Z,8.65
2018-06-21T02:31:23.989Z,7.90
2018-06-21T02:33:52.315Z,8.70
2018-06-21T02:36:20.664Z,8.50
2018-06-21T02:38:49.275Z,8.60
2018-06-21T02:41:20.160Z,8.65
2018-06-21T02:43:49.142Z,9.20
2018-06-21T02:46:17.684Z,9.70
2018-06-21T02:48:46.105Z,9.00
2018-06-21T02:51:14.800Z,9.25
2018-06-21T02:53:43.110Z,9.40
2018-06-21T02:56:11.615Z,9.33
2018-06-21T02:58:39.933Z,9.27
2018-06-21T03:01:08.297Z,8.90
2018-06-21T03:03:36.612Z,9.60
2018-06-21T03:06:04.981Z,9.00
2018-06-21T03:08:33.341Z,8.70
2018-06-21T03:11:01.735Z,9.10
2018-06-21T03:13:30.208Z,9.13
2018-06-21T03:15:58.957Z,8.78
2018-06-21T03:18:27.699Z,9.13
2018-06-21T03:20:56.074Z,9.10
2018-06-21T03:23:24.419Z,9.75
2018-06-21T03:25:52.774Z,9.83
2018-06-21T03:28:21.233Z,9.85
2018-06-21T03:30:49.581Z,10.35
2018-06-21T03:33:18.054Z,9.50
2018-06-21T03:35:46.490Z,9.73
2018-06-21T03:38:14.861Z,9.55
2018-06-21T03:40:43.233Z,9.07
2018-06-21T03:43:11.681Z,8.60
2018-06-21T03:45:40.133Z,9.07
2018-06-21T03:48:08.533Z,9.35
2018-06-21T03:50:36.952Z,9.10
2018-06-21T03:53:05.577Z,10.38
2018-06-21T03:55:34.121Z,10.43
2018-06-21T03:58:02.621Z,9.97
2018-06-21T04:00:31.026Z,10.03
2018-06-21T04:02:59.468Z,9.83
2018-06-21T04:05:27.924Z,9.70
2018-06-21T04:07:56.345Z,10.00
2018-06-21T04:10:24.737Z,10.10
2018-06-21T04:12:53.158Z,10.38
2018-06-21T04:15:21.642Z,10.07
2018-06-21T04:17:50.094Z,10.20
2018-06-21T04:20:18.581Z,10.53
2018-06-21T04:22:46.965Z,10.72
2018-06-21T04:25:15.572Z,10.60
2018-06-21T04:27:43.920Z,10.58
2018-06-21T04:30:12.291Z,10.93
2018-06-21T04:32:41.082Z,10.40
2018-06-21T04:35:09.563Z,10.98
2018-06-21T04:37:38.510Z,10.10
2018-06-21T04:40:06.994Z,9.93
2018-06-21T04:42:35.574Z,10.30
2018-06-21T04:45:04.116Z,9.98
2018-06-21T04:47:32.542Z,10.33
2018-06-21T04:50:01.939Z,9.90
2018-06-21T04:52:30.569Z,10.17
2018-06-21T04:54:58.972Z,10.88
2018-06-21T04:57:27.454Z,10.80
2018-06-21T04:59:55.966Z,10.38
2018-06-21T05:02:24.298Z,10.45
2018-06-21T05:04:52.698Z,10.20
2018-06-21T05:07:21.216Z,9.40
2018-06-21T05:09:49.728Z,9.57
2018-06-21T05:12:21.446Z,9.93
2018-06-21T05:14:50.734Z,9.83
2018-06-21T05:17:19.296Z,9.18
2018-06-21T05:19:47.692Z,8.97
2018-06-21T05:22:16.182Z,9.27
2018-06-21T05:24:44.582Z,9.43
2018-06-21T05:27:18.124Z,8.75
2018-06-21T05:29:46.506Z,8.50
2018-06-21T05:32:14.926Z,8.25
2018-06-21T05:34:43.261Z,8.70
2018-06-21T05:37:11.766Z,8.65
2018-06-21T05:39:40.120Z,8.33
2018-06-21T05:42:08.650Z,8.38
2018-06-21T05:44:37.110Z,7.77
2018-06-21T05:47:05.570Z,8.17
2018-06-21T05:49:34.487Z,7.78
2018-06-21T05:52:02.950Z,7.60
2018-06-21T05:54:31.364Z,7.30
2018-06-21T05:56:59.681Z,7.07
2018-06-21T05:59:28.091Z,7.37
2018-06-21T06:01:56.525Z,7.33
2018-06-21T06:04:24.928Z,7.33
2018-06-21T06:06:53.419Z,6.87
2018-06-21T06:09:21.837Z,7.70
2018-06-21T06:11:50.272Z,6.47
2018-06-21T06:14:18.867Z,6.78
2018-06-21T06:16:48.461Z,6.63
2018-06-21T06:19:16.974Z,7.10
2018-06-21T06:21:45.465Z,6.65
2018-06-21T06:24:14.211Z,6.35
2018-06-21T06:26:42.772Z,6.57
2018-06-21T06:29:11.259Z,6.28
2018-06-21T06:31:40.035Z,6.08
2018-06-21T06:34:08.395Z,5.67
2018-06-21T06:36:36.760Z,6.10
2018-06-21T06:39:13.311Z,6.58
2018-06-21T06:41:41.797Z,6.37
2018-06-21T06:44:10.851Z,6.27
2018-06-21T06:46:39.271Z,6.63
2018-06-21T06:49:08.624Z,5.83
2018-06-21T06:51:37.022Z,6.07
2018-06-21T06:54:05.411Z,6.37
2018-06-21T06:56:33.835Z,6.20
2018-06-21T06:59:02.217Z,6.17
2018-06-21T07:01:31.037Z,5.90
2018-06-21T07:03:59.437Z,6.30
2018-06-21T07:06:27.880Z,5.80
2018-06-21T07:08:56.801Z,6.13
2018-06-21T07:11:25.832Z,5.67
2018-06-21T07:13:54.709Z,5.87
2018-06-21T07:16:23.444Z,5.87
2018-06-21T07:18:52.045Z,6.30
2018-06-21T07:21:20.625Z,6.17
2018-06-21T07:23:49.011Z,6.85
2018-06-21T07:26:17.505Z,6.62
2018-06-21T07:28:45.883Z,6.50
2018-06-21T07:31:14.361Z,6.37
2018-06-21T07:33:42.812Z,5.92
2018-06-21T07:36:11.305Z,5.67
2018-06-21T07:38:39.883Z,5.57
2018-06-21T07:41:08.417Z,5.55
2018-06-21T07:43:36.940Z,5.60
2018-06-21T07:46:05.499Z,5.53
2018-06-21T07:48:34.006Z,5.28
2018-06-21T07:51:02.419Z,5.37
2018-06-21T07:53:31.002Z,5.13
2018-06-21T07:55:59.413Z,5.20
2018-06-21T07:58:28.437Z,5.33
2018-06-21T08:00:56.813Z,5.13
2018-06-21T08:03:25.156Z,5.17
2018-06-21T08:05:53.553Z,5.00
2018-06-21T08:08:21.997Z,5.20
2018-06-21T08:10:50.553Z,5.45
2018-06-21T08:13:19.080Z,5.08
2018-06-21T08:15:47.565Z,4.95
2018-06-21T08:18:16.238Z,5.10
2018-06-21T08:20:44.648Z,5.03
2018-06-21T08:23:13.605Z,4.43
2018-06-21T08:25:42.108Z,4.97
2018-06-21T08:28:10.638Z,4.67
2018-06-21T08:30:39.074Z,4.77
2018-06-21T08:33:07.483Z,4.60
2018-06-21T08:35:36.135Z,4.80
2018-06-21T08:38:04.615Z,5.20
2018-06-21T08:40:32.966Z,5.53
2018-06-21T08:43:01.365Z,4.50
2018-06-21T08:45:29.759Z,4.55
2018-06-21T08:47:58.099Z,5.00
2018-06-21T08:50:26.601Z,4.47
2018-06-21T08:52:55.051Z,4.30
2018-06-21T08:55:23.577Z,3.92
2018-06-21T08:57:52.244Z,4.25
2018-06-21T09:00:20.537Z,4.10
2018-06-21T09:02:48.909Z,3.92
2018-06-21T09:05:17.294Z,3.60
2018-06-21T09:07:45.709Z,3.52
2018-06-21T09:10:14.042Z,3.50
2018-06-21T09:12:42.486Z,3.70
2018-06-21T09:15:11.527Z,3.35
2018-06-21T09:17:39.842Z,3.40
2018-06-21T09:20:08.371Z,3.52
2018-06-21T09:22:36.780Z,3.50
2018-06-21T09:25:05.173Z,3.22
2018-06-21T09:27:33.577Z,3.20
2018-06-21T09:30:01.973Z,3.00
2018-06-21T09:32:31.221Z,3.10
2018-06-21T09:34:59.558Z,3.27
2018-06-21T09:37:34.482Z,3.53
2018-06-21T09:40:08.481Z,3.65
2018-06-21T09:42:42.163Z,3.98
2018-06-21T09:45:10.629Z,3.50
2018-06-21T09:48:47.900Z,3.42
2018-06-21T09:51:16.317Z,3.98
2018-06-21T09:53:44.709Z,3.62
2018-06-21T09:56:13.077Z,3.30
2018-06-21T09:58:41.506Z,3.10
2018-06-21T10:01:09.983Z,3.58
2018-06-21T10:03:38.321Z,3.58
2018-06-21T10:06:06.996Z,3.40
2018-06-21T10:08:35.400Z,3.50
2018-06-21T10:11:03.863Z,3.80
2018-06-21T10:13:32.536Z,3.35
2018-06-21T10:16:01.042Z,3.80
2018-06-21T10:18:29.431Z,3.87
2018-06-21T10:20:57.889Z,4.10
2018-06-21T10:23:26.271Z,3.80
2018-06-21T10:25:54.773Z,3.90
2018-06-21T10:28:23.127Z,3.93
2018-06-21T10:30:51.573Z,3.77
2018-06-21T10:33:20.237Z,4.30
2018-06-21T10:35:49.415Z,3.77
2018-06-21T10:38:17.994Z,3.63
2018-06-21T10:40:46.393Z,4.00
2018-06-21T10:43:15.587Z,4.05
2018-06-21T10:45:44.289Z,4.10
2018-06-21T10:48:12.876Z,3.98
2018-06-21T10:50:41.562Z,4.35
2018-06-21T10:53:10.094Z,3.83
2018-06-21T10:55:38.473Z,3.90
2018-06-21T10:58:07.401Z,3.00
2018-06-21T11:00:36.361Z,3.50
2018-06-21T11:03:04.893Z,3.27
2018-06-21T11:05:33.763Z,3.33
2018-06-21T11:08:02.249Z,3.05
2018-06-21T11:10:30.667Z,3.35
2018-06-21T11:12:59.292Z,4.35
2018-06-21T11:15:27.791Z,4.75
2018-06-21T11:17:56.204Z,3.98
2018-06-21T11:20:24.609Z,3.57
2018-06-21T11:22:53.352Z,3.47
2018-06-21T11:25:26.856Z,3.42
2018-06-21T11:27:55.768Z,2.62
2018-06-21T11:30:25.738Z,2.40
2018-06-21T11:32:54.410Z,2.05
2018-06-21T11:35:27.947Z,2.00
2018-06-21T11:37:56.290Z,1.87
2018-06-21T11:40:26.718Z,2.00
2018-06-21T11:42:55.936Z,2.20
2018-06-21T11:45:35.630Z,2.25
2018-06-21T12:07:47.233Z,1.62
2018-06-21T12:10:17.347Z,2.47
2018-06-21T12:12:46.189Z,4.17
2018-06-21T12:15:14.624Z,2.10
2018-06-21T12:17:43.271Z,7.20
2018-06-21T12:20:11.737Z,3.30
2018-06-21T12:22:42.420Z,2.60
2018-06-21T12:25:12.905Z,2.10
2018-06-21T12:27:42.303Z,2.20
2018-06-21T12:30:13.687Z,1.87
2018-06-21T12:32:42.227Z,1.70
2018-06-21T12:35:10.593Z,1.65
2018-06-21T12:37:39.583Z,1.52
2018-06-21T12:40:09.745Z,1.50
2018-06-21T12:42:40.743Z,1.87
2018-06-21T12:45:09.629Z,2.08
2018-06-21T12:47:40.102Z,2.37
2018-06-21T12:50:09.654Z,1.85
2018-06-21T12:52:39.895Z,1.90
2018-06-21T12:55:09.962Z,1.95
2018-06-21T12:57:40.734Z,1.80
2018-06-21T13:00:10.083Z,1.90
2018-06-21T13:02:40.334Z,1.90
2018-06-21T13:05:10.145Z,1.87
2018-06-21T13:07:39.225Z,2.12
2018-06-21T13:10:19.041Z,2.10
2018-06-21T13:13:03.870Z,2.00
2018-06-21T13:15:39.547Z,2.20
2018-06-21T13:18:08.312Z,3.52
2018-06-21T13:20:37.606Z,2.60
2018-06-21T13:23:06.242Z,2.23
2018-06-21T13:25:34.693Z,2.60
2018-06-21T13:28:03.184Z,2.50
2018-06-21T13:30:31.641Z,2.40
2018-06-21T13:33:00.110Z,2.62
2018-06-21T13:35:28.813Z,2.40
2018-06-21T13:37:57.545Z,2.40
2018-06-21T13:40:27.780Z,2.47
2018-06-21T13:42:56.242Z,2.60
2018-06-21T13:45:24.682Z,2.37
2018-06-21T13:47:53.153Z,2.92
2018-06-21T13:50:21.964Z,4.20
2018-06-21T13:52:50.350Z,2.72
2018-06-21T13:55:19.318Z,2.62
2018-06-21T13:57:49.248Z,2.75
2018-06-21T14:00:19.208Z,2.70
2018-06-21T14:02:48.116Z,3.00
2018-06-21T14:05:17.619Z,2.87
2018-06-21T14:07:47.049Z,2.80
2018-06-21T14:10:15.509Z,3.00
2018-06-21T14:12:49.455Z,2.90
2018-06-21T14:15:24.070Z,3.20
2018-06-21T14:17:55.189Z,2.80
2018-06-21T14:20:23.783Z,2.85
2018-06-21T14:22:54.794Z,2.95
2018-06-21T14:25:33.812Z,2.58
2018-06-21T14:28:02.628Z,2.35
2018-06-21T14:30:44.434Z,2.10
2018-06-21T14:33:13.168Z,2.40
2018-06-21T14:35:48.498Z,2.75
2018-06-21T14:38:21.757Z,2.87
2018-06-21T14:40:55.000Z,1.95
2018-06-21T14:43:23.453Z,2.10
2018-06-21T14:45:55.359Z,1.97
2018-06-21T14:48:23.956Z,1.85
2018-06-21T14:50:54.881Z,2.10
2018-06-21T14:53:25.283Z,2.33
2018-06-21T14:56:03.234Z,2.80
2018-06-21T14:58:36.569Z,2.90
2018-06-21T15:01:06.095Z,2.30
2018-06-21T15:03:39.949Z,2.10
2018-06-21T15:06:24.385Z,2.70
2018-06-21T15:08:56.841Z,2.90
2018-06-21T15:11:26.853Z,3.67
2018-06-21T15:13:55.455Z,2.30
2018-06-21T15:16:25.513Z,2.10
2018-06-21T15:18:56.628Z,2.60
2018-06-21T15:21:26.061Z,3.02
2018-06-21T15:23:56.517Z,2.70
2018-06-21T15:26:30.012Z,2.02
2018-06-21T15:29:00.920Z,2.27
2018-06-21T15:31:32.384Z,2.62
2018-06-21T15:34:01.197Z,2.70
2018-06-21T15:36:30.488Z,1.90
2018-06-21T15:39:04.568Z,2.08
2018-06-21T15:41:34.433Z,1.97
2018-06-21T15:44:05.270Z,1.80
2018-06-21T15:46:42.102Z,1.70
2018-06-21T15:49:14.025Z,1.87
2018-06-21T15:51:44.513Z,1.98
2018-06-21T15:54:16.514Z,1.87
2018-06-21T15:56:45.629Z,2.33
2018-06-21T15:59:14.401Z,2.27
2018-06-21T16:01:44.328Z,2.08
2018-06-21T16:04:17.283Z,2.30
2018-06-21T16:07:04.444Z,2.07
2018-06-21T16:09:36.502Z,2.30
2018-06-21T16:12:05.546Z,2.05
2018-06-21T16:14:34.130Z,2.00
2018-06-21T16:17:02.610Z,2.00
2018-06-21T16:19:31.170Z,2.02
2018-06-21T16:21:59.902Z,2.30
2018-06-21T16:24:28.467Z,2.10
2018-06-21T16:27:01.984Z,2.60
2018-06-21T16:29:30.543Z,2.50
2018-06-21T16:31:58.954Z,2.50
2018-06-21T16:34:27.564Z,2.30
2018-06-21T16:37:01.266Z,1.90
2018-06-21T16:39:29.817Z,2.10
2018-06-21T16:41:58.264Z,2.03
2018-06-21T16:44:27.044Z,2.50
2018-06-21T16:46:55.594Z,2.60
2018-06-21T16:49:24.466Z,2.10
2018-06-21T16:51:52.964Z,2.15
2018-06-21T16:54:21.442Z,2.20
2018-06-21T16:56:49.860Z,2.15
2018-06-21T16:59:18.620Z,2.02
2018-06-21T17:01:47.976Z,2.30
2018-06-21T17:04:16.490Z,2.47
2018-06-21T17:06:44.959Z,2.25
2018-06-21T17:09:13.452Z,2.30
2018-06-21T17:11:42.158Z,2.42
2018-06-21T17:14:10.887Z,2.05
2018-06-21T17:16:44.597Z,2.15
2018-06-21T17:19:13.109Z,1.90
2018-06-21T17:21:41.794Z,1.70
2018-06-21T17:24:10.214Z,2.15
2018-06-21T17:26:43.804Z,2.10
2018-06-21T17:29:12.313Z,2.30
2018-06-21T17:31:41.396Z,2.30
2018-06-21T17:34:10.213Z,2.30
2018-06-21T17:36:43.993Z,2.12
2018-06-21T17:39:12.793Z,2.15
2018-06-21T17:41:42.341Z,2.20
2018-06-21T17:44:12.312Z,2.00
2018-06-21T17:46:47.732Z,1.93
2018-06-21T17:49:17.908Z,2.20
2018-06-21T17:51:46.743Z,2.00
2018-06-21T17:54:15.418Z,2.47
2018-06-21T17:56:45.138Z,2.62
2018-06-21T17:59:15.708Z,2.30
2018-06-21T18:01:44.516Z,3.07
2018-06-21T18:04:13.514Z,2.80
2018-06-21T18:07:04.617Z,2.30
2018-06-21T18:09:33.367Z,1.40
2018-06-21T18:12:02.014Z,1.60
2018-06-21T18:14:32.383Z,1.83
2018-06-21T18:17:05.976Z,1.70
2018-06-21T18:19:34.454Z,2.05
2018-06-21T18:22:02.870Z,2.30
2018-06-21T18:24:31.326Z,2.77
2018-06-21T18:27:13.480Z,2.08
2018-06-21T18:29:42.078Z,1.97
2018-06-21T18:32:10.758Z,2.17
2018-06-21T18:34:39.364Z,1.87
2018-06-21T18:37:07.880Z,1.80
2018-06-21T18:39:36.494Z,2.10
2018-06-21T18:42:05.482Z,2.00
2018-06-21T18:44:34.033Z,1.85
2018-06-21T18:47:08.136Z,1.77
2018-06-21T18:49:36.769Z,2.00
2018-06-21T18:52:05.273Z,2.00
2018-06-21T18:54:33.804Z,1.67
2018-06-21T18:57:11.715Z,2.20
2018-06-21T18:59:40.234Z,2.30
2018-06-21T19:02:08.678Z,2.20
2018-06-21T19:04:37.386Z,2.27
2018-06-21T19:07:11.482Z,2.50
2018-06-21T19:09:45.578Z,2.40
2018-06-21T19:12:14.890Z,2.10
2018-06-21T19:14:43.472Z,2.00
2018-06-21T19:17:12.210Z,2.22
2018-06-21T19:19:40.749Z,1.95
2018-06-21T19:22:09.288Z,1.82
2018-06-21T19:24:37.739Z,2.02
2018-06-21T19:27:15.684Z,2.40
2018-06-21T19:29:44.118Z,2.87
2018-06-21T19:32:12.620Z,3.13
2018-06-21T19:34:41.144Z,1.95
2018-06-21T19:37:09.832Z,1.47
2018-06-21T19:39:38.870Z,1.80
2018-06-21T19:42:07.337Z,1.97
2018-06-21T19:44:35.774Z,1.92
2018-06-21T19:47:04.364Z,2.40
2018-06-21T19:49:32.865Z,2.80
2018-06-21T19:52:01.325Z,2.75
2018-06-21T19:54:29.776Z,1.60
2018-06-21T19:56:58.385Z,1.50
2018-06-21T19:59:26.844Z,1.70
2018-06-21T20:01:55.164Z,1.52
2018-06-21T20:04:23.718Z,1.80
2018-06-21T20:06:52.150Z,2.12
2018-06-21T20:09:20.641Z,1.77
2018-06-21T20:11:49.149Z,1.45
2018-06-21T20:14:17.621Z,1.40
2018-06-21T20:16:46.146Z,1.40
2018-06-21T20:19:16.784Z,1.80
2018-06-21T20:21:45.428Z,1.70
2018-06-21T20:24:13.984Z,1.52
2018-06-21T20:26:42.454Z,1.67
2018-06-21T20:29:16.373Z,1.80
2018-06-21T20:31:44.992Z,2.47
2018-06-21T20:34:13.592Z,2.37
2018-06-21T20:36:42.088Z,1.52
2018-06-21T20:39:11.450Z,1.60
2018-06-21T20:41:39.972Z,1.53
2018-06-21T20:44:08.505Z,1.70
2018-06-21T20:46:37.930Z,1.63
2018-06-21T20:49:06.321Z,1.70
2018-06-21T20:51:34.744Z,1.67
2018-06-21T20:54:03.082Z,1.60
2018-06-21T20:56:31.546Z,1.73
2018-06-21T20:58:59.834Z,1.30
2018-06-21T21:01:28.292Z,2.07
2018-06-21T21:03:56.669Z,1.90
2018-06-21T21:06:25.868Z,1.67
2018-06-21T21:08:54.236Z,1.57
2018-06-21T21:11:22.614Z,1.90
2018-06-21T21:13:51.042Z,1.53
2018-06-21T21:16:19.545Z,1.67
2018-06-21T21:18:47.971Z,1.47
2018-06-21T21:21:16.354Z,1.40
2018-06-21T21:23:44.710Z,1.60
2018-06-21T21:26:13.194Z,1.90
2018-06-21T21:28:41.589Z,1.53
2018-06-21T21:31:09.959Z,1.30
2018-06-21T21:33:38.386Z,1.30
2018-06-21T21:36:07.987Z,1.47
2018-06-21T21:38:36.336Z,1.60
2018-06-21T21:41:04.739Z,1.50
2018-06-21T21:43:33.186Z,1.40
2018-06-21T21:46:01.571Z,1.60
2018-06-21T21:48:29.926Z,1.63
2018-06-21T21:50:58.412Z,1.60
2018-06-21T21:53:26.784Z,1.40
2018-06-21T21:55:55.300Z,1.60
2018-06-21T21:58:23.682Z,1.47
2018-06-21T22:00:54.262Z,2.17
2018-06-21T22:03:22.580Z,1.90
2018-06-21T22:05:51.138Z,2.10
2018-06-21T22:08:19.577Z,1.70
2018-06-21T22:10:48.446Z,1.60
2018-06-21T22:13:17.131Z,2.10
2018-06-21T22:15:45.690Z,1.80
2018-06-21T22:18:14.034Z,1.67
2018-06-21T22:23:18.686Z,1.50
2018-06-21T22:25:47.265Z,1.40
2018-06-21T22:28:15.652Z,1.63
2018-06-21T22:30:44.033Z,1.50
2018-06-21T22:33:12.426Z,1.57
2018-06-21T22:35:41.032Z,1.40
2018-06-21T22:38:09.635Z,1.43
2018-06-21T22:40:38.123Z,1.50
2018-06-21T22:43:06.460Z,1.50
2018-06-21T22:45:34.933Z,1.43
2018-06-21T22:48:03.306Z,1.67
2018-06-21T22:50:31.711Z,1.63
2018-06-21T22:53:00.182Z,1.70
2018-06-21T22:55:28.566Z,1.40
2018-06-21T22:57:56.916Z,1.37
2018-06-21T23:00:25.298Z,1.87
2018-06-21T23:02:53.674Z,1.70
2018-06-21T23:05:22.117Z,1.73
2018-06-21T23:07:50.523Z,2.07
2018-06-21T23:10:18.918Z,1.57
2018-06-21T23:12:47.274Z,1.63
2018-06-21T23:15:15.814Z,1.77
2018-06-21T23:17:44.346Z,1.40
2018-06-21T23:20:12.930Z,1.47
2018-06-21T23:22:41.339Z,1.80
2018-06-21T23:25:09.779Z,1.93
2018-06-21T23:27:38.189Z,1.90
2018-06-21T23:30:06.712Z,2.00
2018-06-21T23:32:35.060Z,1.60
2018-06-21T23:35:03.558Z,1.60
2018-06-21T23:37:31.968Z,1.50
2018-06-21T23:40:00.386Z,1.80
2018-06-21T23:42:28.792Z,1.90
2018-06-21T23:44:57.189Z,1.90
2018-06-21T23:47:26.113Z,1.80
2018-06-21T23:49:54.525Z,1.70
2018-06-21T23:52:22.836Z,1.83
2018-06-21T23:54:51.273Z,1.60
2018-06-21T23:57:19.614Z,1.80
2018-06-21T23:59:48.052Z,1.93
